sensor_id;sensor_type;location;lat;lon;timestamp;temperature;humidity
12089;DHT22;6107;49.078;8.578;2023-07-20T00:00:26;19.50;99.90
12089;DHT22;6107;49.078;8.578;2023-07-20T00:02:51;19.40;99.90
12089;DHT22;6107;49.078;8.578;2023-07-20T00:07:43;19.40;99.90
12089;DHT22;6107;49.078;8.578;2023-07-20T00:10:09;19.30;99.90
12089;DHT22;6107;49.078;8.578;2023-07-20T00:12:35;19.10;99.90
12089;DHT22;6107;49.078;8.578;2023-07-20T00:15:01;19.10;99.90
12089;DHT22;6107;49.078;8.578;2023-07-20T00:17:26;19.00;99.90
12089;DHT22;6107;49.078;8.578;2023-07-20T00:19:52;18.90;99.90
12089;DHT22;6107;49.078;8.578;2023-07-20T00:22:17;18.90;99.90
12089;DHT22;6107;49.078;8.578;2023-07-20T00:24:43;18.70;99.90
12089;DHT22;6107;49.078;8.578;2023-07-20T00:27:08;18.60;99.90
12089;DHT22;6107;49.078;8.578;2023-07-20T00:29:34;18.50;99.90
12089;DHT22;6107;49.078;8.578;2023-07-20T00:32:00;18.30;99.90
12089;DHT22;6107;49.078;8.578;2023-07-20T00:34:26;18.30;99.90
12089;DHT22;6107;49.078;8.578;2023-07-20T00:36:51;18.40;99.90
12089;DHT22;6107;49.078;8.578;2023-07-20T00:39:17;18.40;99.90
12089;DHT22;6107;49.078;8.578;2023-07-20T00:41:42;18.50;99.90
12089;DHT22;6107;49.078;8.578;2023-07-20T00:44:08;18.40;99.90
12089;DHT22;6107;49.078;8.578;2023-07-20T00:46:33;18.40;99.90
12089;DHT22;6107;49.078;8.578;2023-07-20T00:48:59;18.30;99.90
12089;DHT22;6107;49.078;8.578;2023-07-20T00:51:25;18.20;99.90
12089;DHT22;6107;49.078;8.578;2023-07-20T00:53:51;18.20;99.90
12089;DHT22;6107;49.078;8.578;2023-07-20T00:56:17;18.10;99.90
12089;DHT22;6107;49.078;8.578;2023-07-20T00:58:43;18.00;99.90
12089;DHT22;6107;49.078;8.578;2023-07-20T01:01:09;18.00;99.90
12089;DHT22;6107;49.078;8.578;2023-07-20T01:11:23;17.70;99.90
12089;DHT22;6107;49.078;8.578;2023-07-20T01:13:53;17.50;99.90
12089;DHT22;6107;49.078;8.578;2023-07-20T01:16:19;17.50;99.90
12089;DHT22;6107;49.078;8.578;2023-07-20T01:18:44;17.50;99.90
12089;DHT22;6107;49.078;8.578;2023-07-20T01:21:16;17.30;99.90
12089;DHT22;6107;49.078;8.578;2023-07-20T01:29:43;17.20;99.90
12089;DHT22;6107;49.078;8.578;2023-07-20T01:32:14;17.20;99.90
12089;DHT22;6107;49.078;8.578;2023-07-20T01:34:41;17.20;99.90
12089;DHT22;6107;49.078;8.578;2023-07-20T01:37:08;17.20;99.90
12089;DHT22;6107;49.078;8.578;2023-07-20T01:39:34;17.00;99.90
12089;DHT22;6107;49.078;8.578;2023-07-20T01:42:00;16.90;99.90
12089;DHT22;6107;49.078;8.578;2023-07-20T01:44:27;16.80;99.90
12089;DHT22;6107;49.078;8.578;2023-07-20T01:46:53;16.70;99.90
12089;DHT22;6107;49.078;8.578;2023-07-20T01:49:18;16.70;99.90
12089;DHT22;6107;49.078;8.578;2023-07-20T01:51:44;16.70;99.90
12089;DHT22;6107;49.078;8.578;2023-07-20T01:54:09;16.60;99.90
12089;DHT22;6107;49.078;8.578;2023-07-20T01:56:35;16.60;99.90
12089;DHT22;6107;49.078;8.578;2023-07-20T01:59:00;16.70;99.90
12089;DHT22;6107;49.078;8.578;2023-07-20T02:01:25;16.60;99.90
12089;DHT22;6107;49.078;8.578;2023-07-20T02:03:53;16.30;99.90
12089;DHT22;6107;49.078;8.578;2023-07-20T02:06:19;16.30;99.90
12089;DHT22;6107;49.078;8.578;2023-07-20T02:08:45;16.50;99.90
12089;DHT22;6107;49.078;8.578;2023-07-20T02:11:10;16.50;99.90
12089;DHT22;6107;49.078;8.578;2023-07-20T02:13:36;16.60;99.90
12089;DHT22;6107;49.078;8.578;2023-07-20T02:16:01;16.50;99.90
12089;DHT22;6107;49.078;8.578;2023-07-20T02:18:27;16.60;99.90
12089;DHT22;6107;49.078;8.578;2023-07-20T02:20:53;16.60;99.90
12089;DHT22;6107;49.078;8.578;2023-07-20T02:23:19;16.60;99.90
12089;DHT22;6107;49.078;8.578;2023-07-20T02:25:45;16.50;99.90
12089;DHT22;6107;49.078;8.578;2023-07-20T02:28:13;16.60;99.90
12089;DHT22;6107;49.078;8.578;2023-07-20T02:30:39;16.50;99.90
12089;DHT22;6107;49.078;8.578;2023-07-20T02:33:05;16.30;99.90
12089;DHT22;6107;49.078;8.578;2023-07-20T02:35:32;16.30;99.90
12089;DHT22;6107;49.078;8.578;2023-07-20T02:37:57;16.30;99.90
12089;DHT22;6107;49.078;8.578;2023-07-20T02:40:23;16.30;99.90
12089;DHT22;6107;49.078;8.578;2023-07-20T02:42:48;16.20;99.90
12089;DHT22;6107;49.078;8.578;2023-07-20T02:45:14;16.30;99.90
12089;DHT22;6107;49.078;8.578;2023-07-20T02:47:40;16.40;99.90
12089;DHT22;6107;49.078;8.578;2023-07-20T02:50:07;16.30;99.90
12089;DHT22;6107;49.078;8.578;2023-07-20T02:52:33;16.30;99.90
12089;DHT22;6107;49.078;8.578;2023-07-20T02:54:59;16.40;99.90
12089;DHT22;6107;49.078;8.578;2023-07-20T02:57:25;16.30;99.90
12089;DHT22;6107;49.078;8.578;2023-07-20T02:59:50;16.30;99.90
12089;DHT22;6107;49.078;8.578;2023-07-20T03:02:16;16.40;99.90
12089;DHT22;6107;49.078;8.578;2023-07-20T03:04:41;16.30;99.90
12089;DHT22;6107;49.078;8.578;2023-07-20T03:07:07;16.30;99.90
12089;DHT22;6107;49.078;8.578;2023-07-20T03:09:33;16.30;99.90
12089;DHT22;6107;49.078;8.578;2023-07-20T03:11:58;16.30;99.90
12089;DHT22;6107;49.078;8.578;2023-07-20T03:14:24;16.30;99.90
12089;DHT22;6107;49.078;8.578;2023-07-20T03:16:50;16.40;99.90
12089;DHT22;6107;49.078;8.578;2023-07-20T03:19:15;16.30;99.90
12089;DHT22;6107;49.078;8.578;2023-07-20T03:21:41;16.30;99.90
12089;DHT22;6107;49.078;8.578;2023-07-20T03:24:09;16.30;99.90
12089;DHT22;6107;49.078;8.578;2023-07-20T03:26:35;16.30;99.90
12089;DHT22;6107;49.078;8.578;2023-07-20T03:29:04;16.30;99.90
12089;DHT22;6107;49.078;8.578;2023-07-20T03:31:30;16.30;99.90
12089;DHT22;6107;49.078;8.578;2023-07-20T03:33:56;16.20;99.90
12089;DHT22;6107;49.078;8.578;2023-07-20T03:36:21;16.10;99.90
12089;DHT22;6107;49.078;8.578;2023-07-20T03:38:47;16.00;99.90
12089;DHT22;6107;49.078;8.578;2023-07-20T03:41:12;16.00;99.90
12089;DHT22;6107;49.078;8.578;2023-07-20T03:43:40;16.00;99.90
12089;DHT22;6107;49.078;8.578;2023-07-20T03:46:05;16.00;99.90
12089;DHT22;6107;49.078;8.578;2023-07-20T03:48:32;16.00;99.90
12089;DHT22;6107;49.078;8.578;2023-07-20T03:50:58;15.70;99.90
12089;DHT22;6107;49.078;8.578;2023-07-20T03:53:25;15.70;99.90
12089;DHT22;6107;49.078;8.578;2023-07-20T03:55:51;15.50;99.90
12089;DHT22;6107;49.078;8.578;2023-07-20T03:58:18;15.50;99.90
12089;DHT22;6107;49.078;8.578;2023-07-20T04:00:49;15.50;99.90
12089;DHT22;6107;49.078;8.578;2023-07-20T04:03:16;15.50;99.90
12089;DHT22;6107;49.078;8.578;2023-07-20T04:05:42;15.40;99.90
12089;DHT22;6107;49.078;8.578;2023-07-20T04:08:07;15.30;99.90
12089;DHT22;6107;49.078;8.578;2023-07-20T04:10:33;15.30;99.90
12089;DHT22;6107;49.078;8.578;2023-07-20T04:13:00;15.20;99.90
12089;DHT22;6107;49.078;8.578;2023-07-20T04:15:26;15.30;99.90
12089;DHT22;6107;49.078;8.578;2023-07-20T04:17:51;15.30;99.90
12089;DHT22;6107;49.078;8.578;2023-07-20T04:20:17;15.40;99.90
12089;DHT22;6107;49.078;8.578;2023-07-20T04:22:43;15.50;99.90
12089;DHT22;6107;49.078;8.578;2023-07-20T04:25:09;15.50;99.90
12089;DHT22;6107;49.078;8.578;2023-07-20T04:27:35;15.50;99.90
12089;DHT22;6107;49.078;8.578;2023-07-20T04:30:01;15.60;99.90
12089;DHT22;6107;49.078;8.578;2023-07-20T04:32:27;15.60;99.90
12089;DHT22;6107;49.078;8.578;2023-07-20T04:34:53;15.60;99.90
12089;DHT22;6107;49.078;8.578;2023-07-20T04:37:18;15.80;99.90
12089;DHT22;6107;49.078;8.578;2023-07-20T04:42:10;15.90;99.90
12089;DHT22;6107;49.078;8.578;2023-07-20T04:44:35;15.90;99.90
12089;DHT22;6107;49.078;8.578;2023-07-20T04:47:01;15.90;99.90
12089;DHT22;6107;49.078;8.578;2023-07-20T04:49:26;16.00;99.90
12089;DHT22;6107;49.078;8.578;2023-07-20T04:51:52;16.00;99.90
12089;DHT22;6107;49.078;8.578;2023-07-20T04:54:17;16.10;99.90
12089;DHT22;6107;49.078;8.578;2023-07-20T04:56:44;16.10;99.90
12089;DHT22;6107;49.078;8.578;2023-07-20T04:59:09;16.10;99.90
12089;DHT22;6107;49.078;8.578;2023-07-20T05:01:35;16.30;99.90
12089;DHT22;6107;49.078;8.578;2023-07-20T05:04:01;16.30;99.90
12089;DHT22;6107;49.078;8.578;2023-07-20T05:06:27;16.50;99.90
12089;DHT22;6107;49.078;8.578;2023-07-20T05:08:52;16.60;99.90
12089;DHT22;6107;49.078;8.578;2023-07-20T05:11:18;16.70;99.90
12089;DHT22;6107;49.078;8.578;2023-07-20T05:13:43;16.80;99.90
12089;DHT22;6107;49.078;8.578;2023-07-20T05:16:09;16.90;99.90
12089;DHT22;6107;49.078;8.578;2023-07-20T05:18:34;16.90;99.90
12089;DHT22;6107;49.078;8.578;2023-07-20T05:21:00;17.10;99.90
12089;DHT22;6107;49.078;8.578;2023-07-20T05:23:25;17.20;99.90
12089;DHT22;6107;49.078;8.578;2023-07-20T05:25:58;17.20;99.90
12089;DHT22;6107;49.078;8.578;2023-07-20T05:28:24;17.40;99.90
12089;DHT22;6107;49.078;8.578;2023-07-20T05:30:50;17.50;99.90
12089;DHT22;6107;49.078;8.578;2023-07-20T05:33:20;17.60;99.90
12089;DHT22;6107;49.078;8.578;2023-07-20T05:35:45;17.60;99.90
12089;DHT22;6107;49.078;8.578;2023-07-20T05:38:11;17.60;99.90
12089;DHT22;6107;49.078;8.578;2023-07-20T05:40:44;17.60;99.90
12089;DHT22;6107;49.078;8.578;2023-07-20T05:43:10;17.70;99.90
12089;DHT22;6107;49.078;8.578;2023-07-20T05:45:36;17.70;99.90
12089;DHT22;6107;49.078;8.578;2023-07-20T05:48:01;17.80;99.90
12089;DHT22;6107;49.078;8.578;2023-07-20T05:50:27;17.80;99.90
12089;DHT22;6107;49.078;8.578;2023-07-20T05:52:53;17.80;99.90
12089;DHT22;6107;49.078;8.578;2023-07-20T05:55:19;18.00;99.90
12089;DHT22;6107;49.078;8.578;2023-07-20T05:57:45;18.10;99.90
12089;DHT22;6107;49.078;8.578;2023-07-20T06:00:11;18.20;99.90
12089;DHT22;6107;49.078;8.578;2023-07-20T06:02:40;18.30;99.90
12089;DHT22;6107;49.078;8.578;2023-07-20T06:05:06;18.40;99.90
12089;DHT22;6107;49.078;8.578;2023-07-20T06:07:36;18.50;99.90
12089;DHT22;6107;49.078;8.578;2023-07-20T06:10:02;18.50;99.90
12089;DHT22;6107;49.078;8.578;2023-07-20T06:12:27;18.50;99.90
12089;DHT22;6107;49.078;8.578;2023-07-20T06:14:53;18.60;99.90
12089;DHT22;6107;49.078;8.578;2023-07-20T06:19:46;19.70;99.90
12089;DHT22;6107;49.078;8.578;2023-07-20T06:22:11;20.50;99.90
12089;DHT22;6107;49.078;8.578;2023-07-20T06:24:37;20.20;99.90
12089;DHT22;6107;49.078;8.578;2023-07-20T06:27:03;20.20;99.90
12089;DHT22;6107;49.078;8.578;2023-07-20T06:29:30;20.20;99.90
12089;DHT22;6107;49.078;8.578;2023-07-20T06:31:56;20.20;99.90
12089;DHT22;6107;49.078;8.578;2023-07-20T06:34:21;19.80;99.90
12089;DHT22;6107;49.078;8.578;2023-07-20T06:36:47;19.60;99.90
12089;DHT22;6107;49.078;8.578;2023-07-20T06:39:12;19.90;99.90
12089;DHT22;6107;49.078;8.578;2023-07-20T06:41:39;19.90;99.90
12089;DHT22;6107;49.078;8.578;2023-07-20T06:44:05;20.20;99.90
12089;DHT22;6107;49.078;8.578;2023-07-20T06:46:30;20.00;99.90
12089;DHT22;6107;49.078;8.578;2023-07-20T06:48:56;20.00;99.90
12089;DHT22;6107;49.078;8.578;2023-07-20T06:51:22;20.20;99.90
12089;DHT22;6107;49.078;8.578;2023-07-20T06:53:47;20.30;99.90
12089;DHT22;6107;49.078;8.578;2023-07-20T06:56:13;20.20;99.90
12089;DHT22;6107;49.078;8.578;2023-07-20T06:58:39;20.30;99.90
12089;DHT22;6107;49.078;8.578;2023-07-20T07:01:05;20.40;99.90
12089;DHT22;6107;49.078;8.578;2023-07-20T07:03:32;20.80;99.90
12089;DHT22;6107;49.078;8.578;2023-07-20T07:05:57;20.80;99.90
12089;DHT22;6107;49.078;8.578;2023-07-20T07:08:23;20.90;99.90
12089;DHT22;6107;49.078;8.578;2023-07-20T07:10:48;20.40;99.90
12089;DHT22;6107;49.078;8.578;2023-07-20T07:13:14;20.60;99.90
12089;DHT22;6107;49.078;8.578;2023-07-20T07:15:39;20.60;99.90
12089;DHT22;6107;49.078;8.578;2023-07-20T07:18:05;20.40;99.90
12089;DHT22;6107;49.078;8.578;2023-07-20T07:20:30;20.60;99.90
12089;DHT22;6107;49.078;8.578;2023-07-20T07:22:56;20.80;99.90
12089;DHT22;6107;49.078;8.578;2023-07-20T07:27:48;21.10;99.90
12089;DHT22;6107;49.078;8.578;2023-07-20T07:32:40;21.50;99.90
12089;DHT22;6107;49.078;8.578;2023-07-20T07:35:07;21.50;99.90
12089;DHT22;6107;49.078;8.578;2023-07-20T07:37:32;21.30;99.90
12089;DHT22;6107;49.078;8.578;2023-07-20T07:39:58;21.40;99.90
12089;DHT22;6107;49.078;8.578;2023-07-20T07:42:23;21.40;99.90
12089;DHT22;6107;49.078;8.578;2023-07-20T07:44:49;21.70;99.90
12089;DHT22;6107;49.078;8.578;2023-07-20T07:47:14;21.80;99.90
12089;DHT22;6107;49.078;8.578;2023-07-20T07:49:40;21.50;99.90
12089;DHT22;6107;49.078;8.578;2023-07-20T07:52:05;21.20;99.90
12089;DHT22;6107;49.078;8.578;2023-07-20T07:54:31;21.30;99.90
12089;DHT22;6107;49.078;8.578;2023-07-20T07:56:57;21.40;99.90
12089;DHT22;6107;49.078;8.578;2023-07-20T07:59:22;21.80;99.90
12089;DHT22;6107;49.078;8.578;2023-07-20T08:01:48;21.70;99.90
12089;DHT22;6107;49.078;8.578;2023-07-20T08:04:13;22.00;99.90
12089;DHT22;6107;49.078;8.578;2023-07-20T08:06:39;22.20;99.90
12089;DHT22;6107;49.078;8.578;2023-07-20T08:09:05;22.10;99.90
12089;DHT22;6107;49.078;8.578;2023-07-20T08:11:30;22.30;99.90
12089;DHT22;6107;49.078;8.578;2023-07-20T08:13:59;22.20;99.90
12089;DHT22;6107;49.078;8.578;2023-07-20T08:16:26;22.30;99.90
12089;DHT22;6107;49.078;8.578;2023-07-20T08:18:51;22.50;99.90
12089;DHT22;6107;49.078;8.578;2023-07-20T08:21:17;21.90;99.90
12089;DHT22;6107;49.078;8.578;2023-07-20T08:23:42;22.00;99.90
12089;DHT22;6107;49.078;8.578;2023-07-20T08:26:08;22.10;99.90
12089;DHT22;6107;49.078;8.578;2023-07-20T08:28:34;21.70;99.90
12089;DHT22;6107;49.078;8.578;2023-07-20T08:30:59;21.80;99.90
12089;DHT22;6107;49.078;8.578;2023-07-20T08:33:25;22.00;99.90
12089;DHT22;6107;49.078;8.578;2023-07-20T08:35:50;22.40;99.90
12089;DHT22;6107;49.078;8.578;2023-07-20T08:38:16;22.60;99.90
12089;DHT22;6107;49.078;8.578;2023-07-20T08:40:44;22.30;99.90
12089;DHT22;6107;49.078;8.578;2023-07-20T08:43:14;21.90;99.90
12089;DHT22;6107;49.078;8.578;2023-07-20T08:45:42;21.90;99.90
12089;DHT22;6107;49.078;8.578;2023-07-20T08:48:11;22.10;99.90
12089;DHT22;6107;49.078;8.578;2023-07-20T08:50:38;22.30;99.90
12089;DHT22;6107;49.078;8.578;2023-07-20T08:53:03;22.40;99.90
12089;DHT22;6107;49.078;8.578;2023-07-20T08:55:30;22.40;99.90
12089;DHT22;6107;49.078;8.578;2023-07-20T08:57:58;22.20;99.90
12089;DHT22;6107;49.078;8.578;2023-07-20T09:00:24;23.00;99.90
12089;DHT22;6107;49.078;8.578;2023-07-20T09:02:52;23.30;99.90
12089;DHT22;6107;49.078;8.578;2023-07-20T09:05:22;23.40;99.90
12089;DHT22;6107;49.078;8.578;2023-07-20T09:07:48;23.30;99.90
12089;DHT22;6107;49.078;8.578;2023-07-20T09:10:13;22.90;99.90
12089;DHT22;6107;49.078;8.578;2023-07-20T09:12:43;22.70;99.90
12089;DHT22;6107;49.078;8.578;2023-07-20T09:15:10;22.70;99.90
12089;DHT22;6107;49.078;8.578;2023-07-20T09:17:37;22.40;99.90
12089;DHT22;6107;49.078;8.578;2023-07-20T09:20:07;22.90;99.90
12089;DHT22;6107;49.078;8.578;2023-07-20T09:22:36;23.10;99.90
12089;DHT22;6107;49.078;8.578;2023-07-20T09:25:15;23.10;99.90
12089;DHT22;6107;49.078;8.578;2023-07-20T09:27:42;23.10;99.90
12089;DHT22;6107;49.078;8.578;2023-07-20T09:30:08;23.50;99.90
12089;DHT22;6107;49.078;8.578;2023-07-20T09:35:06;24.30;99.90
12089;DHT22;6107;49.078;8.578;2023-07-20T09:37:33;24.10;99.90
12089;DHT22;6107;49.078;8.578;2023-07-20T09:39:59;24.20;99.90
12089;DHT22;6107;49.078;8.578;2023-07-20T09:42:25;24.20;99.90
12089;DHT22;6107;49.078;8.578;2023-07-20T09:44:52;24.50;99.90
12089;DHT22;6107;49.078;8.578;2023-07-20T09:47:24;25.10;99.90
12089;DHT22;6107;49.078;8.578;2023-07-20T09:49:58;25.10;99.90
12089;DHT22;6107;49.078;8.578;2023-07-20T09:52:25;24.90;99.90
12089;DHT22;6107;49.078;8.578;2023-07-20T09:54:51;24.50;99.90
12089;DHT22;6107;49.078;8.578;2023-07-20T09:59:45;25.60;99.90
12089;DHT22;6107;49.078;8.578;2023-07-20T10:02:25;25.40;99.90
12089;DHT22;6107;49.078;8.578;2023-07-20T10:04:53;25.80;99.90
12089;DHT22;6107;49.078;8.578;2023-07-20T10:07:22;26.30;99.90
12089;DHT22;6107;49.078;8.578;2023-07-20T10:09:51;26.00;99.90
12089;DHT22;6107;49.078;8.578;2023-07-20T10:12:19;25.10;99.90
12089;DHT22;6107;49.078;8.578;2023-07-20T10:14:54;25.10;99.90
12089;DHT22;6107;49.078;8.578;2023-07-20T10:17:23;24.70;99.90
12089;DHT22;6107;49.078;8.578;2023-07-20T10:19:54;24.90;99.90
12089;DHT22;6107;49.078;8.578;2023-07-20T10:22:25;25.10;99.90
12089;DHT22;6107;49.078;8.578;2023-07-20T10:24:51;25.20;99.90
12089;DHT22;6107;49.078;8.578;2023-07-20T10:27:20;25.40;99.90
12089;DHT22;6107;49.078;8.578;2023-07-20T10:29:46;25.20;99.90
12089;DHT22;6107;49.078;8.578;2023-07-20T10:32:12;25.10;99.90
12089;DHT22;6107;49.078;8.578;2023-07-20T10:34:39;25.00;99.90
12089;DHT22;6107;49.078;8.578;2023-07-20T10:37:05;25.10;99.90
12089;DHT22;6107;49.078;8.578;2023-07-20T10:39:34;25.80;99.90
12089;DHT22;6107;49.078;8.578;2023-07-20T10:42:19;26.30;99.90
12089;DHT22;6107;49.078;8.578;2023-07-20T10:44:45;26.50;99.90
12089;DHT22;6107;49.078;8.578;2023-07-20T10:47:13;27.10;99.90
12089;DHT22;6107;49.078;8.578;2023-07-20T10:49:57;27.40;99.90
12089;DHT22;6107;49.078;8.578;2023-07-20T10:52:24;26.50;99.90
12089;DHT22;6107;49.078;8.578;2023-07-20T10:54:50;26.50;99.90
12089;DHT22;6107;49.078;8.578;2023-07-20T10:57:23;26.10;99.90
12089;DHT22;6107;49.078;8.578;2023-07-20T10:59:49;25.70;99.90
12089;DHT22;6107;49.078;8.578;2023-07-20T11:02:18;26.20;99.90
12089;DHT22;6107;49.078;8.578;2023-07-20T11:07:17;26.70;99.90
12089;DHT22;6107;49.078;8.578;2023-07-20T11:09:43;26.70;99.90
12089;DHT22;6107;49.078;8.578;2023-07-20T11:12:10;27.00;99.90
12089;DHT22;6107;49.078;8.578;2023-07-20T11:14:40;27.00;99.90
12089;DHT22;6107;49.078;8.578;2023-07-20T11:17:15;26.60;99.90
12089;DHT22;6107;49.078;8.578;2023-07-20T11:19:48;26.80;99.90
12089;DHT22;6107;49.078;8.578;2023-07-20T11:22:16;26.70;99.90
12089;DHT22;6107;49.078;8.578;2023-07-20T11:24:43;27.00;99.90
12089;DHT22;6107;49.078;8.578;2023-07-20T11:27:08;27.00;99.90
12089;DHT22;6107;49.078;8.578;2023-07-20T11:29:34;27.00;99.90
12089;DHT22;6107;49.078;8.578;2023-07-20T11:32:01;27.20;99.90
12089;DHT22;6107;49.078;8.578;2023-07-20T11:34:30;27.40;99.90
12089;DHT22;6107;49.078;8.578;2023-07-20T11:36:56;28.40;99.90
12089;DHT22;6107;49.078;8.578;2023-07-20T11:39:22;28.80;99.90
12089;DHT22;6107;49.078;8.578;2023-07-20T11:41:57;27.70;99.90
12089;DHT22;6107;49.078;8.578;2023-07-20T11:44:24;27.20;99.90
12089;DHT22;6107;49.078;8.578;2023-07-20T11:47:12;27.00;99.90
12089;DHT22;6107;49.078;8.578;2023-07-20T11:49:39;27.20;99.90
12089;DHT22;6107;49.078;8.578;2023-07-20T11:52:13;27.10;99.90
12089;DHT22;6107;49.078;8.578;2023-07-20T11:54:41;27.60;99.90
12089;DHT22;6107;49.078;8.578;2023-07-20T11:57:07;28.40;99.90
12089;DHT22;6107;49.078;8.578;2023-07-20T11:59:52;29.00;99.90
12089;DHT22;6107;49.078;8.578;2023-07-20T12:02:18;29.60;99.90
12089;DHT22;6107;49.078;8.578;2023-07-20T12:04:44;28.50;99.90
12089;DHT22;6107;49.078;8.578;2023-07-20T12:07:09;28.90;99.90
12089;DHT22;6107;49.078;8.578;2023-07-20T12:09:35;28.80;99.90
12089;DHT22;6107;49.078;8.578;2023-07-20T12:12:09;28.60;99.90
12089;DHT22;6107;49.078;8.578;2023-07-20T12:14:36;28.70;99.90
12089;DHT22;6107;49.078;8.578;2023-07-20T12:17:02;29.10;99.90
12089;DHT22;6107;49.078;8.578;2023-07-20T12:19:27;29.10;99.90
12089;DHT22;6107;49.078;8.578;2023-07-20T12:21:57;28.80;99.90
12089;DHT22;6107;49.078;8.578;2023-07-20T12:24:24;29.40;99.90
12089;DHT22;6107;49.078;8.578;2023-07-20T12:26:56;29.30;99.90
12089;DHT22;6107;49.078;8.578;2023-07-20T12:29:23;29.40;99.90
12089;DHT22;6107;49.078;8.578;2023-07-20T12:31:48;29.70;99.90
12089;DHT22;6107;49.078;8.578;2023-07-20T12:34:14;28.90;99.90
12089;DHT22;6107;49.078;8.578;2023-07-20T12:36:40;28.30;99.90
12089;DHT22;6107;49.078;8.578;2023-07-20T12:39:05;28.70;99.90
12089;DHT22;6107;49.078;8.578;2023-07-20T12:41:31;28.60;99.90
12089;DHT22;6107;49.078;8.578;2023-07-20T12:43:56;28.50;99.90
12089;DHT22;6107;49.078;8.578;2023-07-20T12:46:23;28.70;99.90
12089;DHT22;6107;49.078;8.578;2023-07-20T12:48:49;28.10;99.90
12089;DHT22;6107;49.078;8.578;2023-07-20T12:51:14;28.70;99.60
12089;DHT22;6107;49.078;8.578;2023-07-20T12:53:40;29.10;99.90
12089;DHT22;6107;49.078;8.578;2023-07-20T12:56:06;28.80;97.10
12089;DHT22;6107;49.078;8.578;2023-07-20T12:58:31;29.10;99.90
12089;DHT22;6107;49.078;8.578;2023-07-20T13:00:57;29.30;96.60
12089;DHT22;6107;49.078;8.578;2023-07-20T13:03:22;29.10;99.90
12089;DHT22;6107;49.078;8.578;2023-07-20T13:05:48;29.70;97.10
12089;DHT22;6107;49.078;8.578;2023-07-20T13:08:15;28.70;97.50
12089;DHT22;6107;49.078;8.578;2023-07-20T13:10:41;28.30;99.10
12089;DHT22;6107;49.078;8.578;2023-07-20T13:13:07;28.40;99.40
12089;DHT22;6107;49.078;8.578;2023-07-20T13:15:41;28.70;99.90
12089;DHT22;6107;49.078;8.578;2023-07-20T13:18:06;28.40;97.70
12089;DHT22;6107;49.078;8.578;2023-07-20T13:20:32;28.40;97.00
12089;DHT22;6107;49.078;8.578;2023-07-20T13:22:57;28.50;98.60
12089;DHT22;6107;49.078;8.578;2023-07-20T13:25:24;29.40;97.30
12089;DHT22;6107;49.078;8.578;2023-07-20T13:27:49;28.80;95.40
12089;DHT22;6107;49.078;8.578;2023-07-20T13:30:15;28.70;94.70
12089;DHT22;6107;49.078;8.578;2023-07-20T13:32:44;29.20;94.50
12089;DHT22;6107;49.078;8.578;2023-07-20T13:35:11;29.50;96.10
12089;DHT22;6107;49.078;8.578;2023-07-20T13:37:37;29.10;94.20
12089;DHT22;6107;49.078;8.578;2023-07-20T13:40:03;28.70;96.10
12089;DHT22;6107;49.078;8.578;2023-07-20T13:42:31;29.70;96.90
12089;DHT22;6107;49.078;8.578;2023-07-20T13:44:56;29.70;94.20
12089;DHT22;6107;49.078;8.578;2023-07-20T13:47:22;30.10;97.30
12089;DHT22;6107;49.078;8.578;2023-07-20T13:49:48;29.20;93.20
12089;DHT22;6107;49.078;8.578;2023-07-20T13:52:14;29.80;97.50
12089;DHT22;6107;49.078;8.578;2023-07-20T13:54:39;30.10;96.00
12089;DHT22;6107;49.078;8.578;2023-07-20T13:57:05;29.40;93.30
12089;DHT22;6107;49.078;8.578;2023-07-20T13:59:30;29.20;94.40
12089;DHT22;6107;49.078;8.578;2023-07-20T14:01:56;29.40;94.50
12089;DHT22;6107;49.078;8.578;2023-07-20T14:04:21;29.50;96.70
12089;DHT22;6107;49.078;8.578;2023-07-20T14:06:47;29.40;95.40
12089;DHT22;6107;49.078;8.578;2023-07-20T14:09:13;29.00;93.90
12089;DHT22;6107;49.078;8.578;2023-07-20T14:11:38;28.90;97.50
12089;DHT22;6107;49.078;8.578;2023-07-20T14:14:04;29.00;98.60
12089;DHT22;6107;49.078;8.578;2023-07-20T14:16:29;29.50;95.60
12089;DHT22;6107;49.078;8.578;2023-07-20T14:18:55;30.30;96.60
12089;DHT22;6107;49.078;8.578;2023-07-20T14:21:21;30.50;93.80
12089;DHT22;6107;49.078;8.578;2023-07-20T14:23:47;30.60;94.50
12089;DHT22;6107;49.078;8.578;2023-07-20T14:26:13;30.00;99.90
12089;DHT22;6107;49.078;8.578;2023-07-20T14:28:39;30.30;93.60
12089;DHT22;6107;49.078;8.578;2023-07-20T14:31:05;29.80;91.50
12089;DHT22;6107;49.078;8.578;2023-07-20T14:33:31;30.30;93.50
12089;DHT22;6107;49.078;8.578;2023-07-20T14:35:57;30.50;91.80
12089;DHT22;6107;49.078;8.578;2023-07-20T14:38:22;30.70;88.00
12089;DHT22;6107;49.078;8.578;2023-07-20T14:40:48;30.50;88.60
12089;DHT22;6107;49.078;8.578;2023-07-20T14:43:13;30.20;87.80
12089;DHT22;6107;49.078;8.578;2023-07-20T14:45:42;30.00;87.50
12089;DHT22;6107;49.078;8.578;2023-07-20T14:48:08;29.70;89.70
12089;DHT22;6107;49.078;8.578;2023-07-20T14:50:34;29.50;90.60
12089;DHT22;6107;49.078;8.578;2023-07-20T14:52:59;29.50;90.00
12089;DHT22;6107;49.078;8.578;2023-07-20T14:55:25;29.20;91.20
12089;DHT22;6107;49.078;8.578;2023-07-20T14:57:51;30.00;90.90
12089;DHT22;6107;49.078;8.578;2023-07-20T15:00:17;30.10;90.40
12089;DHT22;6107;49.078;8.578;2023-07-20T15:02:42;30.60;94.30
12089;DHT22;6107;49.078;8.578;2023-07-20T15:05:09;30.90;90.70
12089;DHT22;6107;49.078;8.578;2023-07-20T15:07:36;30.90;86.50
12089;DHT22;6107;49.078;8.578;2023-07-20T15:10:05;30.90;91.00
12089;DHT22;6107;49.078;8.578;2023-07-20T15:12:31;31.00;89.50
12089;DHT22;6107;49.078;8.578;2023-07-20T15:15:03;30.90;90.00
12089;DHT22;6107;49.078;8.578;2023-07-20T15:17:33;30.50;87.00
12089;DHT22;6107;49.078;8.578;2023-07-20T15:19:59;29.80;85.10
12089;DHT22;6107;49.078;8.578;2023-07-20T15:22:24;30.30;89.30
12089;DHT22;6107;49.078;8.578;2023-07-20T15:24:50;30.10;89.40
12089;DHT22;6107;49.078;8.578;2023-07-20T15:27:16;30.20;86.80
12089;DHT22;6107;49.078;8.578;2023-07-20T15:29:41;29.90;85.40
12089;DHT22;6107;49.078;8.578;2023-07-20T15:32:07;30.10;84.00
12089;DHT22;6107;49.078;8.578;2023-07-20T15:34:34;30.30;87.80
12089;DHT22;6107;49.078;8.578;2023-07-20T15:36:59;30.90;87.20
12089;DHT22;6107;49.078;8.578;2023-07-20T15:39:25;30.50;82.00
12089;DHT22;6107;49.078;8.578;2023-07-20T15:41:51;29.90;88.30
12089;DHT22;6107;49.078;8.578;2023-07-20T15:44:17;30.10;87.00
12089;DHT22;6107;49.078;8.578;2023-07-20T15:49:08;29.50;84.80
12089;DHT22;6107;49.078;8.578;2023-07-20T15:51:35;29.50;85.40
12089;DHT22;6107;49.078;8.578;2023-07-20T15:56:33;29.10;86.10
12089;DHT22;6107;49.078;8.578;2023-07-20T15:58:58;28.90;90.20
12089;DHT22;6107;49.078;8.578;2023-07-20T16:01:24;28.90;90.00
12089;DHT22;6107;49.078;8.578;2023-07-20T16:03:49;29.00;87.50
12089;DHT22;6107;49.078;8.578;2023-07-20T16:06:15;28.90;91.40
12089;DHT22;6107;49.078;8.578;2023-07-20T16:08:40;29.10;89.90
12089;DHT22;6107;49.078;8.578;2023-07-20T16:11:06;29.10;87.50
12089;DHT22;6107;49.078;8.578;2023-07-20T16:13:31;29.00;90.00
12089;DHT22;6107;49.078;8.578;2023-07-20T16:15:57;29.10;87.20
12089;DHT22;6107;49.078;8.578;2023-07-20T16:18:22;28.70;86.30